Bhaunagar, Bhavnagar Airport (VABV)

NameBhavnagar Airport
CityBhaunagar
CountryIndia
ICAOVABV
IATABHU
Altitude6 m
CoordinatesGoogle Map
Live Air TrafficLiveATC.net
METARVABV 241500Z 04004KT 4000 FU NSC 26/17 Q1013
2020-02-24 15:00:00 Wind: North-Northeast (40°) 2.06 m/s - Visibility: 4000 m - Weather: Smoke - Temperature: 26 °C - Dew point: 17 °C - Humidity: 57.7% - Pressure: 1013 hPa

Sorry, no flights used the airport in this database.